Time;durP1;ratioP1;P1;durP2;ratioP2;P2;SDS_P1;SDS_P2;PMS_P1;PMS_P2;Temp;Humidity;BMP_temperature;BMP_pressure;BME280_temperature;BME280_humidity;BME280_pressure;Samples;Min_cycle;Max_cycle;Signal;HPM_P1;HPM_P2
2020/12/15 19:28:32;;;;;;;;;;;;;;;13.78;61.90;99463.88;4973387;28;20059;-84
2020/12/15 19:30:57;;;;;;;;;;;;;;;13.77;62.27;99463.03;4966704;28;19926;-81
2020/12/15 19:33:22;;;;;;;;;;;;;;;13.76;62.11;99469.28;4972060;28;20208;-80
2020/12/15 19:35:48;;;;;;;;;;;;;;;13.77;62.33;99472.81;4973854;28;19996;-81
2020/12/15 19:38:14;;;;;;;;;;;;;;;13.77;62.17;99473.66;4969457;28;20266;-82
2020/12/15 19:40:40;;;;;;;;;;;;;;;13.77;62.10;99489.66;4978391;28;20018;-83
2020/12/15 19:43:05;;;;;;;;;;;;;;;13.78;62.36;99487.84;4971709;28;20023;-83
2020/12/15 19:45:31;;;;;;;;;;;;;;;13.83;61.85;99482.22;4970407;28;19922;-82
2020/12/15 19:47:56;;;;;;;;;;;;;;;13.85;61.60;99481.19;4971384;28;20073;-83
2020/12/15 19:50:22;;;;;;;;;;;;;;;13.84;61.83;99474.16;4965664;28;20021;-80
2020/12/15 19:52:47;;;;;;;;;;;;;;;13.86;61.98;99472.25;4980058;28;19922;-82
2020/12/15 19:55:13;;;;;;;;;;;;;;;13.89;62.11;99480.03;4971970;28;19970;-83
2020/12/15 19:57:41;;;;;;;;;;;;;;;13.94;61.97;99474.44;4977451;28;19933;-84
2020/12/15 20:00:07;;;;;;;;;;;;;;;13.97;61.48;99474.25;4974827;28;19933;-83
2020/12/15 20:02:33;;;;;;;;;;;;;;;13.96;61.57;99476.06;4970347;28;20009;-84
2020/12/15 20:04:58;;;;;;;;;;;;;;;13.98;62.00;99481.28;4964975;28;20005;-80
2020/12/15 20:07:24;;;;;;;;;;;;;;;13.99;61.77;99481.19;4968170;28;19922;-81
2020/12/15 20:09:49;;;;;;;;;;;;;;;14.04;61.80;99480.03;4968700;28;19992;-80
2020/12/15 20:12:14;;;;;;;;;;;;;;;14.08;61.46;99477.09;4967211;28;19930;-84
2020/12/15 20:14:40;;;;;;;;;;;;;;;14.07;61.29;99463.88;4967427;28;19930;-85
2020/12/15 20:17:08;;;;;;;;;;;;;;;14.04;61.32;99470.28;4968768;28;19930;-84
2020/12/15 20:19:33;;;;;;;;;;;;;;;14.04;61.40;99454.28;4986019;28;20237;-84
2020/12/15 20:21:58;;;;;;;;;;;;;;;14.04;61.19;99474.72;4970772;28;19922;-85
2020/12/15 20:24:24;;;;;;;;;;;;;;;14.02;61.73;99468.63;4967830;28;20037;-85
2020/12/15 20:26:53;;;;;;;;;;;;;;;14.04;61.72;99472.06;4969998;28;20336;-82
2020/12/15 20:29:18;;;;;;;;;;;;;;;14.10;61.61;99474.34;4969159;28;19969;-80
2020/12/15 20:31:43;;;;;;;;;;;;;;;14.18;61.34;99480.03;4968753;28;19966;-85
2020/12/15 20:34:09;;;;;;;;;;;;;;;14.22;61.24;99481.56;4969256;28;19922;-84
2020/12/15 20:36:42;;;;;;;;;;;;;;;14.21;61.24;99473.69;4968731;28;19964;-84
2020/12/15 20:39:08;;;;;;;;;;;;;;;14.20;61.31;99477.28;4967570;28;19922;-85
2020/12/15 20:41:34;;;;;;;;;;;;;;;14.29;61.04;99479.38;4966061;28;19922;-86
2020/12/15 20:44:00;;;;;;;;;;;;;;;14.29;60.96;99474.03;4971269;28;19922;-84
2020/12/15 20:46:26;;;;;;;;;;;;;;;14.27;60.97;99475.97;4965160;28;20163;-83
2020/12/15 20:48:51;;;;;;;;;;;;;;;14.30;60.91;99481.94;4967966;28;19922;-84
2020/12/15 20:51:17;;;;;;;;;;;;;;;14.28;60.82;99478.53;4967668;28;19937;-82
2020/12/15 20:53:43;;;;;;;;;;;;;;;14.25;60.83;99478.72;4981874;28;19922;-82
2020/12/15 20:56:11;;;;;;;;;;;;;;;14.21;61.08;99482.50;4967071;28;19922;-81
2020/12/15 20:58:36;;;;;;;;;;;;;;;14.22;60.85;99483.38;4969153;28;19922;-82
2020/12/15 21:01:02;;;;;;;;;;;;;;;14.20;60.89;99480.81;4965142;28;20037;-83
2020/12/15 21:03:27;;;;;;;;;;;;;;;14.23;60.93;99480.63;4968766;28;20326;-82
2020/12/15 21:05:52;;;;;;;;;;;;;;;14.22;60.98;99484.25;4966807;28;20434;-82
2020/12/15 21:08:18;;;;;;;;;;;;;;;14.23;60.97;99480.63;4969056;28;20360;-84
2020/12/15 21:10:43;;;;;;;;;;;;;;;14.28;60.82;99489.19;4965001;28;19926;-84
2020/12/15 21:13:09;;;;;;;;;;;;;;;14.31;60.67;99498.78;4971113;28;19922;-82
2020/12/15 21:15:35;;;;;;;;;;;;;;;14.27;60.48;99495.47;4970138;28;19926;-80
2020/12/15 21:18:00;;;;;;;;;;;;;;;14.23;60.61;99488.63;4965911;28;19914;-82
2020/12/15 21:20:26;;;;;;;;;;;;;;;14.20;60.66;99480.81;4967307;28;19933;-86
2020/12/15 21:22:51;;;;;;;;;;;;;;;14.22;60.86;99492.22;4984051;28;19929;-82
2020/12/15 21:25:16;;;;;;;;;;;;;;;14.31;60.53;99486.34;4968346;28;20081;-83
2020/12/15 21:27:42;;;;;;;;;;;;;;;14.33;60.43;99480.91;4965701;28;19922;-82
2020/12/15 21:30:08;;;;;;;;;;;;;;;14.33;60.43;99479.09;4965580;28;19922;-84
2020/12/15 21:32:33;;;;;;;;;;;;;;;14.38;60.33;99484.13;4965087;28;19937;-84
2020/12/15 21:35:01;;;;;;;;;;;;;;;14.32;60.33;99480.03;4965082;28;20313;-81
2020/12/15 21:37:27;;;;;;;;;;;;;;;14.30;60.46;99481.94;4968569;28;19923;-81
2020/12/15 21:39:52;;;;;;;;;;;;;;;14.27;60.56;99479.47;4966902;28;19922;-81
2020/12/15 21:42:18;;;;;;;;;;;;;;;14.26;60.42;99480.41;4967947;28;19930;-81
2020/12/15 21:44:43;;;;;;;;;;;;;;;14.25;60.58;99473.38;4968639;28;19933;-80
2020/12/15 21:47:08;;;;;;;;;;;;;;;14.25;60.31;99470.72;4965376;28;19989;-84
2020/12/15 21:49:34;;;;;;;;;;;;;;;14.24;59.75;99463.66;4967756;28;19934;-82
2020/12/15 21:52:01;;;;;;;;;;;;;;;14.23;59.97;99461.09;4964645;28;19926;-83
2020/12/15 21:54:27;;;;;;;;;;;;;;;14.22;60.17;99475.41;4965761;28;20301;-82
2020/12/15 21:56:55;;;;;;;;;;;;;;;14.19;60.68;99480.91;4969921;28;19922;-80
2020/12/15 21:59:22;;;;;;;;;;;;;;;14.20;60.63;99485.28;4980933;28;19922;-81
2020/12/15 22:01:48;;;;;;;;;;;;;;;14.21;60.55;99476.34;4967509;28;20329;-82
2020/12/15 22:04:13;;;;;;;;;;;;;;;14.23;60.51;99480.63;4966378;28;19985;-81
2020/12/15 22:06:41;;;;;;;;;;;;;;;14.26;60.37;99475.06;4969435;28;19992;-84
2020/12/15 22:09:06;;;;;;;;;;;;;;;14.26;60.38;99475.06;4965216;28;19922;-87
2020/12/15 22:11:32;;;;;;;;;;;;;;;14.39;60.00;99485.84;4967370;28;19988;-81
2020/12/15 22:13:57;;;;;;;;;;;;;;;14.45;59.79;99472.09;4969613;28;19933;-83
2020/12/15 22:16:26;;;;;;;;;;;;;;;14.64;59.15;99482.47;4971338;28;19973;-81
2020/12/15 22:18:51;;;;;;;;;;;;;;;14.66;59.07;99477.03;4967147;28;19922;-84
2020/12/15 22:21:17;;;;;;;;;;;;;;;14.53;59.35;99472.50;4972249;28;20202;-83
2020/12/15 22:23:42;;;;;;;;;;;;;;;14.47;59.57;99474.66;4972138;28;19926;-84
2020/12/15 22:26:08;;;;;;;;;;;;;;;14.38;59.81;99477.94;4969829;28;20036;-83
2020/12/15 22:28:33;;;;;;;;;;;;;;;14.31;59.91;99473.00;4973335;28;20000;-86
2020/12/15 22:31:01;;;;;;;;;;;;;;;14.29;59.87;99477.56;4970529;28;20100;-85
2020/12/15 22:33:32;;;;;;;;;;;;;;;14.28;59.75;99480.31;4969892;28;19926;-85
2020/12/15 22:35:57;;;;;;;;;;;;;;;14.27;60.04;99487.47;4970001;28;19977;-84
2020/12/15 22:38:23;;;;;;;;;;;;;;;14.28;59.81;99483.84;4972779;28;19982;-82
2020/12/15 22:40:48;;;;;;;;;;;;;;;14.29;59.85;99493.53;4973907;28;19933;-83
2020/12/15 22:43:14;;;;;;;;;;;;;;;14.34;59.66;99490.59;4976014;28;19934;-85
2020/12/15 22:45:39;;;;;;;;;;;;;;;14.34;59.37;99496.78;4968815;28;19930;-83
2020/12/15 22:48:05;;;;;;;;;;;;;;;14.30;59.68;99492.59;4970898;28;19953;-85
2020/12/15 22:50:30;;;;;;;;;;;;;;;14.31;59.31;99491.66;4969108;28;19926;-82
2020/12/15 22:52:55;;;;;;;;;;;;;;;14.26;59.28;99488.41;4969977;28;19930;-82
2020/12/15 22:55:21;;;;;;;;;;;;;;;14.24;59.34;99490.31;4970026;28;20482;-80
2020/12/15 22:57:46;;;;;;;;;;;;;;;14.24;59.42;99492.97;4970349;28;19933;-81
2020/12/15 23:00:15;;;;;;;;;;;;;;;14.21;59.77;99481.66;4970888;28;19923;-82
2020/12/15 23:02:40;;;;;;;;;;;;;;;14.24;59.71;99489.47;4970092;28;19922;-84
2020/12/15 23:05:05;;;;;;;;;;;;;;;14.37;59.34;99492.22;4969950;28;19922;-85
2020/12/15 23:07:31;;;;;;;;;;;;;;;14.34;59.36;99493.25;4969099;28;19950;-85
2020/12/15 23:09:56;;;;;;;;;;;;;;;14.28;59.43;99489.19;4968238;28;19922;-87
2020/12/15 23:12:21;;;;;;;;;;;;;;;14.26;59.60;99496.41;4970540;28;20208;-82
2020/12/15 23:14:47;;;;;;;;;;;;;;;14.27;59.29;99497.28;4969302;28;19922;-81
2020/12/15 23:17:12;;;;;;;;;;;;;;;14.25;59.23;99508.03;4979210;28;19922;-82
2020/12/15 23:19:38;;;;;;;;;;;;;;;14.22;59.52;99510.88;4978129;28;19922;-83
2020/12/15 23:22:06;;;;;;;;;;;;;;;14.22;59.25;99507.38;4961493;28;19926;-82
2020/12/15 23:24:34;;;;;;;;;;;;;;;14.23;59.40;99512.59;4971775;28;19922;-80
2020/12/15 23:26:59;;;;;;;;;;;;;;;14.23;58.89;99504.63;4973805;28;19922;-85
2020/12/15 23:29:25;;;;;;;;;;;;;;;14.22;58.70;99504.72;4974020;28;20360;-84
2020/12/15 23:31:50;;;;;;;;;;;;;;;14.13;59.41;99514.97;4967774;28;19933;-80
2020/12/15 23:34:15;;;;;;;;;;;;;;;14.11;59.21;99514.19;4970968;28;19984;-82
2020/12/15 23:36:41;;;;;;;;;;;;;;;14.09;59.40;99507.28;4972647;28;19985;-84
2020/12/15 23:39:06;;;;;;;;;;;;;;;14.05;59.69;99503.06;4990907;28;19941;-84
2020/12/15 23:41:31;;;;;;;;;;;;;;;13.99;59.27;99507.84;4970429;28;19929;-81
2020/12/15 23:43:57;;;;;;;;;;;;;;;13.93;59.52;99500.22;4968649;28;20025;-82
2020/12/15 23:46:22;;;;;;;;;;;;;;;13.84;59.53;99510.59;4968561;28;20295;-82
2020/12/15 23:48:48;;;;;;;;;;;;;;;13.76;59.75;99497.72;4965653;28;20365;-80
